sensor_id;sensor_type;location;lat;lon;timestamp;temperature;humidity
41628;DHT22;27321;50.816;6.054;2023-07-31T00:02:42;17.80;80.40
41628;DHT22;27321;50.816;6.054;2023-07-31T00:05:44;17.80;80.40
41628;DHT22;27321;50.816;6.054;2023-07-31T00:08:45;17.80;80.30
41628;DHT22;27321;50.816;6.054;2023-07-31T00:11:46;17.80;80.50
41628;DHT22;27321;50.816;6.054;2023-07-31T00:14:47;17.70;80.20
41628;DHT22;27321;50.816;6.054;2023-07-31T00:17:48;17.80;80.40
41628;DHT22;27321;50.816;6.054;2023-07-31T00:20:49;17.80;80.20
41628;DHT22;27321;50.816;6.054;2023-07-31T00:23:50;17.80;80.00
41628;DHT22;27321;50.816;6.054;2023-07-31T00:26:51;17.80;79.90
41628;DHT22;27321;50.816;6.054;2023-07-31T00:29:52;17.70;80.40
41628;DHT22;27321;50.816;6.054;2023-07-31T00:32:53;17.70;80.10
41628;DHT22;27321;50.816;6.054;2023-07-31T00:35:54;17.60;80.10
41628;DHT22;27321;50.816;6.054;2023-07-31T00:38:55;17.60;80.00
41628;DHT22;27321;50.816;6.054;2023-07-31T00:41:56;17.60;80.30
41628;DHT22;27321;50.816;6.054;2023-07-31T00:44:57;17.60;80.20
41628;DHT22;27321;50.816;6.054;2023-07-31T00:47:58;17.70;80.20
41628;DHT22;27321;50.816;6.054;2023-07-31T00:50:59;17.70;80.10
41628;DHT22;27321;50.816;6.054;2023-07-31T00:54:02;17.70;79.90
41628;DHT22;27321;50.816;6.054;2023-07-31T00:57:04;17.70;80.20
41628;DHT22;27321;50.816;6.054;2023-07-31T01:00:08;17.70;80.10
41628;DHT22;27321;50.816;6.054;2023-07-31T01:03:10;17.70;80.50
41628;DHT22;27321;50.816;6.054;2023-07-31T01:09:39;17.80;80.90
41628;DHT22;27321;50.816;6.054;2023-07-31T01:12:45;17.80;80.70
41628;DHT22;27321;50.816;6.054;2023-07-31T01:15:47;17.80;80.90
41628;DHT22;27321;50.816;6.054;2023-07-31T01:18:48;17.90;80.80
41628;DHT22;27321;50.816;6.054;2023-07-31T01:26:03;17.80;80.60
41628;DHT22;27321;50.816;6.054;2023-07-31T01:30:07;17.80;80.50
41628;DHT22;27321;50.816;6.054;2023-07-31T01:33:11;17.90;80.40
41628;DHT22;27321;50.816;6.054;2023-07-31T01:36:12;17.90;80.50
41628;DHT22;27321;50.816;6.054;2023-07-31T01:39:14;17.90;80.40
41628;DHT22;27321;50.816;6.054;2023-07-31T01:42:16;17.90;80.30
41628;DHT22;27321;50.816;6.054;2023-07-31T01:45:17;17.90;80.10
41628;DHT22;27321;50.816;6.054;2023-07-31T01:48:18;17.90;79.90
41628;DHT22;27321;50.816;6.054;2023-07-31T01:51:20;17.90;79.90
41628;DHT22;27321;50.816;6.054;2023-07-31T01:54:21;17.90;79.90
41628;DHT22;27321;50.816;6.054;2023-07-31T01:57:22;17.90;79.90
41628;DHT22;27321;50.816;6.054;2023-07-31T02:00:23;17.90;79.80
41628;DHT22;27321;50.816;6.054;2023-07-31T02:03:24;18.00;79.80
41628;DHT22;27321;50.816;6.054;2023-07-31T02:06:27;18.00;79.70
41628;DHT22;27321;50.816;6.054;2023-07-31T02:09:29;18.00;79.60
41628;DHT22;27321;50.816;6.054;2023-07-31T02:12:30;18.00;79.70
41628;DHT22;27321;50.816;6.054;2023-07-31T02:15:32;18.00;79.80
41628;DHT22;27321;50.816;6.054;2023-07-31T02:18:33;18.00;79.60
41628;DHT22;27321;50.816;6.054;2023-07-31T02:21:36;18.00;79.60
41628;DHT22;27321;50.816;6.054;2023-07-31T02:24:37;18.00;79.60
41628;DHT22;27321;50.816;6.054;2023-07-31T02:27:38;18.00;79.30
41628;DHT22;27321;50.816;6.054;2023-07-31T02:30:39;18.00;79.40
41628;DHT22;27321;50.816;6.054;2023-07-31T02:33:40;18.00;79.20
41628;DHT22;27321;50.816;6.054;2023-07-31T02:36:41;18.00;79.20
41628;DHT22;27321;50.816;6.054;2023-07-31T02:39:42;18.00;79.10
41628;DHT22;27321;50.816;6.054;2023-07-31T02:42:43;18.00;79.10
41628;DHT22;27321;50.816;6.054;2023-07-31T02:45:44;18.00;79.20
41628;DHT22;27321;50.816;6.054;2023-07-31T02:48:45;18.00;78.60
41628;DHT22;27321;50.816;6.054;2023-07-31T02:51:46;18.00;79.10
41628;DHT22;27321;50.816;6.054;2023-07-31T02:54:47;18.00;78.80
41628;DHT22;27321;50.816;6.054;2023-07-31T02:57:48;18.00;79.00
41628;DHT22;27321;50.816;6.054;2023-07-31T03:00:49;18.00;79.00
41628;DHT22;27321;50.816;6.054;2023-07-31T03:03:50;18.00;79.30
41628;DHT22;27321;50.816;6.054;2023-07-31T03:06:52;18.00;78.80
41628;DHT22;27321;50.816;6.054;2023-07-31T03:09:53;18.00;79.00
41628;DHT22;27321;50.816;6.054;2023-07-31T03:12:55;18.10;79.10
41628;DHT22;27321;50.816;6.054;2023-07-31T03:15:56;18.10;79.10
41628;DHT22;27321;50.816;6.054;2023-07-31T03:18:57;18.10;79.20
41628;DHT22;27321;50.816;6.054;2023-07-31T03:21:58;18.00;79.40
41628;DHT22;27321;50.816;6.054;2023-07-31T03:25:00;18.10;79.30
41628;DHT22;27321;50.816;6.054;2023-07-31T03:28:02;18.00;79.30
41628;DHT22;27321;50.816;6.054;2023-07-31T03:31:04;18.00;79.20
41628;DHT22;27321;50.816;6.054;2023-07-31T03:34:05;18.00;79.00
41628;DHT22;27321;50.816;6.054;2023-07-31T03:37:07;18.00;79.20
41628;DHT22;27321;50.816;6.054;2023-07-31T03:40:10;18.00;78.70
41628;DHT22;27321;50.816;6.054;2023-07-31T03:43:13;18.00;78.90
41628;DHT22;27321;50.816;6.054;2023-07-31T03:46:17;18.00;78.90
41628;DHT22;27321;50.816;6.054;2023-07-31T03:49:18;18.10;78.90
41628;DHT22;27321;50.816;6.054;2023-07-31T03:52:20;18.10;78.90
41628;DHT22;27321;50.816;6.054;2023-07-31T03:55:21;18.00;79.00
41628;DHT22;27321;50.816;6.054;2023-07-31T03:58:22;18.00;78.90
41628;DHT22;27321;50.816;6.054;2023-07-31T04:01:23;18.00;79.00
41628;DHT22;27321;50.816;6.054;2023-07-31T04:04:24;18.00;79.10
41628;DHT22;27321;50.816;6.054;2023-07-31T04:07:25;18.00;79.20
41628;DHT22;27321;50.816;6.054;2023-07-31T04:10:26;18.00;79.20
41628;DHT22;27321;50.816;6.054;2023-07-31T04:13:29;18.00;79.10
41628;DHT22;27321;50.816;6.054;2023-07-31T04:16:30;18.00;79.00
41628;DHT22;27321;50.816;6.054;2023-07-31T04:19:31;18.00;79.00
41628;DHT22;27321;50.816;6.054;2023-07-31T04:22:32;17.90;79.20
41628;DHT22;27321;50.816;6.054;2023-07-31T04:25:33;18.00;79.20
41628;DHT22;27321;50.816;6.054;2023-07-31T04:28:35;18.00;79.10
41628;DHT22;27321;50.816;6.054;2023-07-31T04:31:36;18.00;79.00
41628;DHT22;27321;50.816;6.054;2023-07-31T04:34:37;18.00;79.10
41628;DHT22;27321;50.816;6.054;2023-07-31T04:37:38;18.00;79.00
41628;DHT22;27321;50.816;6.054;2023-07-31T04:40:39;18.00;79.10
41628;DHT22;27321;50.816;6.054;2023-07-31T04:43:40;18.00;79.20
41628;DHT22;27321;50.816;6.054;2023-07-31T04:46:41;18.10;79.10
41628;DHT22;27321;50.816;6.054;2023-07-31T04:49:42;18.10;78.90
41628;DHT22;27321;50.816;6.054;2023-07-31T04:52:43;18.10;79.20
41628;DHT22;27321;50.816;6.054;2023-07-31T04:55:44;18.10;78.90
41628;DHT22;27321;50.816;6.054;2023-07-31T04:58:45;18.10;79.20
41628;DHT22;27321;50.816;6.054;2023-07-31T05:01:46;18.10;79.20
41628;DHT22;27321;50.816;6.054;2023-07-31T05:04:47;18.10;79.10
41628;DHT22;27321;50.816;6.054;2023-07-31T05:07:48;18.10;79.00
41628;DHT22;27321;50.816;6.054;2023-07-31T05:10:50;18.10;78.80
41628;DHT22;27321;50.816;6.054;2023-07-31T05:13:51;18.10;79.00
41628;DHT22;27321;50.816;6.054;2023-07-31T05:16:52;18.10;79.00
41628;DHT22;27321;50.816;6.054;2023-07-31T05:19:53;18.10;78.70
41628;DHT22;27321;50.816;6.054;2023-07-31T05:22:54;18.10;79.00
41628;DHT22;27321;50.816;6.054;2023-07-31T05:25:55;18.10;79.20
41628;DHT22;27321;50.816;6.054;2023-07-31T05:28:56;18.00;79.70
41628;DHT22;27321;50.816;6.054;2023-07-31T05:31:58;18.00;80.00
41628;DHT22;27321;50.816;6.054;2023-07-31T05:34:59;18.00;80.50
41628;DHT22;27321;50.816;6.054;2023-07-31T05:38:00;17.90;81.00
41628;DHT22;27321;50.816;6.054;2023-07-31T05:41:01;17.90;81.30
41628;DHT22;27321;50.816;6.054;2023-07-31T05:44:02;17.80;81.40
41628;DHT22;27321;50.816;6.054;2023-07-31T05:47:04;17.90;81.40
41628;DHT22;27321;50.816;6.054;2023-07-31T05:50:05;17.80;81.60
41628;DHT22;27321;50.816;6.054;2023-07-31T05:53:06;17.80;81.50
41628;DHT22;27321;50.816;6.054;2023-07-31T05:56:08;17.90;81.60
41628;DHT22;27321;50.816;6.054;2023-07-31T05:59:11;17.90;81.20
41628;DHT22;27321;50.816;6.054;2023-07-31T06:02:13;17.90;80.40
41628;DHT22;27321;50.816;6.054;2023-07-31T06:05:14;18.00;80.80
41628;DHT22;27321;50.816;6.054;2023-07-31T06:08:15;18.00;80.40
41628;DHT22;27321;50.816;6.054;2023-07-31T06:11:16;18.00;80.20
41628;DHT22;27321;50.816;6.054;2023-07-31T06:14:17;18.10;80.30
41628;DHT22;27321;50.816;6.054;2023-07-31T06:17:18;18.10;80.00
41628;DHT22;27321;50.816;6.054;2023-07-31T06:20:19;18.20;79.80
41628;DHT22;27321;50.816;6.054;2023-07-31T06:23:20;18.30;79.30
41628;DHT22;27321;50.816;6.054;2023-07-31T06:26:21;18.30;79.10
41628;DHT22;27321;50.816;6.054;2023-07-31T06:29:22;18.30;79.30
41628;DHT22;27321;50.816;6.054;2023-07-31T06:32:23;18.30;79.30
41628;DHT22;27321;50.816;6.054;2023-07-31T06:35:24;18.30;79.30
41628;DHT22;27321;50.816;6.054;2023-07-31T06:38:26;18.30;79.50
41628;DHT22;27321;50.816;6.054;2023-07-31T06:41:27;18.30;79.90
41628;DHT22;27321;50.816;6.054;2023-07-31T06:44:28;18.30;79.90
41628;DHT22;27321;50.816;6.054;2023-07-31T06:47:29;18.30;79.70
41628;DHT22;27321;50.816;6.054;2023-07-31T06:50:33;18.30;79.80
41628;DHT22;27321;50.816;6.054;2023-07-31T06:53:34;18.30;79.70
41628;DHT22;27321;50.816;6.054;2023-07-31T06:56:35;18.30;80.20
41628;DHT22;27321;50.816;6.054;2023-07-31T06:59:36;18.30;80.30
41628;DHT22;27321;50.816;6.054;2023-07-31T07:02:37;18.40;80.20
41628;DHT22;27321;50.816;6.054;2023-07-31T07:05:38;18.30;80.60
41628;DHT22;27321;50.816;6.054;2023-07-31T07:08:39;18.30;80.40
41628;DHT22;27321;50.816;6.054;2023-07-31T07:11:40;18.20;80.30
41628;DHT22;27321;50.816;6.054;2023-07-31T07:14:41;18.20;81.30
41628;DHT22;27321;50.816;6.054;2023-07-31T07:17:42;18.20;81.40
41628;DHT22;27321;50.816;6.054;2023-07-31T07:20:51;18.20;81.20
41628;DHT22;27321;50.816;6.054;2023-07-31T07:23:52;18.20;81.60
41628;DHT22;27321;50.816;6.054;2023-07-31T07:26:53;18.30;81.50
41628;DHT22;27321;50.816;6.054;2023-07-31T07:29:55;18.30;81.50
41628;DHT22;27321;50.816;6.054;2023-07-31T07:32:56;18.40;81.10
41628;DHT22;27321;50.816;6.054;2023-07-31T07:36:00;18.40;81.20
41628;DHT22;27321;50.816;6.054;2023-07-31T07:39:02;18.30;81.20
41628;DHT22;27321;50.816;6.054;2023-07-31T07:42:03;18.30;80.90
41628;DHT22;27321;50.816;6.054;2023-07-31T07:45:05;18.20;80.70
41628;DHT22;27321;50.816;6.054;2023-07-31T07:48:06;18.20;80.80
41628;DHT22;27321;50.816;6.054;2023-07-31T07:51:07;18.20;81.00
41628;DHT22;27321;50.816;6.054;2023-07-31T07:54:08;18.30;81.20
41628;DHT22;27321;50.816;6.054;2023-07-31T07:57:09;18.40;81.20
41628;DHT22;27321;50.816;6.054;2023-07-31T08:00:12;18.50;80.70
41628;DHT22;27321;50.816;6.054;2023-07-31T08:03:17;18.50;81.00
41628;DHT22;27321;50.816;6.054;2023-07-31T08:06:18;18.60;80.80
41628;DHT22;27321;50.816;6.054;2023-07-31T08:09:19;18.60;80.50
41628;DHT22;27321;50.816;6.054;2023-07-31T08:12:23;18.70;80.40
41628;DHT22;27321;50.816;6.054;2023-07-31T08:15:24;18.70;80.00
41628;DHT22;27321;50.816;6.054;2023-07-31T08:18:25;18.80;79.80
41628;DHT22;27321;50.816;6.054;2023-07-31T08:21:26;18.90;79.40
41628;DHT22;27321;50.816;6.054;2023-07-31T08:24:27;18.80;79.00
41628;DHT22;27321;50.816;6.054;2023-07-31T08:27:28;18.80;79.20
41628;DHT22;27321;50.816;6.054;2023-07-31T08:30:29;18.70;79.00
41628;DHT22;27321;50.816;6.054;2023-07-31T08:33:30;18.60;78.70
41628;DHT22;27321;50.816;6.054;2023-07-31T08:36:32;18.60;78.50
41628;DHT22;27321;50.816;6.054;2023-07-31T08:39:33;18.60;78.80
41628;DHT22;27321;50.816;6.054;2023-07-31T08:42:34;18.60;78.70
41628;DHT22;27321;50.816;6.054;2023-07-31T08:45:35;18.60;79.20
41628;DHT22;27321;50.816;6.054;2023-07-31T08:48:37;18.60;79.20
41628;DHT22;27321;50.816;6.054;2023-07-31T08:51:40;18.80;79.40
41628;DHT22;27321;50.816;6.054;2023-07-31T08:54:42;18.80;78.70
41628;DHT22;27321;50.816;6.054;2023-07-31T08:57:44;18.90;78.90
41628;DHT22;27321;50.816;6.054;2023-07-31T09:00:47;18.90;78.30
41628;DHT22;27321;50.816;6.054;2023-07-31T09:03:49;18.90;78.70
41628;DHT22;27321;50.816;6.054;2023-07-31T09:06:56;19.00;78.80
41628;DHT22;27321;50.816;6.054;2023-07-31T09:10:00;19.10;78.90
41628;DHT22;27321;50.816;6.054;2023-07-31T09:13:02;19.10;78.70
41628;DHT22;27321;50.816;6.054;2023-07-31T09:16:04;19.10;77.80
41628;DHT22;27321;50.816;6.054;2023-07-31T09:19:05;19.20;77.40
41628;DHT22;27321;50.816;6.054;2023-07-31T09:22:06;19.30;77.40
41628;DHT22;27321;50.816;6.054;2023-07-31T09:25:20;19.40;77.30
41628;DHT22;27321;50.816;6.054;2023-07-31T09:28:30;19.50;77.10
41628;DHT22;27321;50.816;6.054;2023-07-31T09:31:42;19.50;75.70
41628;DHT22;27321;50.816;6.054;2023-07-31T09:34:44;19.50;76.10
41628;DHT22;27321;50.816;6.054;2023-07-31T09:37:57;19.50;76.20
41628;DHT22;27321;50.816;6.054;2023-07-31T09:41:08;19.50;76.10
41628;DHT22;27321;50.816;6.054;2023-07-31T09:44:09;19.50;76.00
41628;DHT22;27321;50.816;6.054;2023-07-31T09:47:23;19.50;77.20
41628;DHT22;27321;50.816;6.054;2023-07-31T09:50:24;19.50;77.50
41628;DHT22;27321;50.816;6.054;2023-07-31T09:53:29;19.50;77.90
41628;DHT22;27321;50.816;6.054;2023-07-31T09:56:33;19.60;78.00
41628;DHT22;27321;50.816;6.054;2023-07-31T09:59:35;19.60;77.70
41628;DHT22;27321;50.816;6.054;2023-07-31T10:02:37;19.60;78.60
41628;DHT22;27321;50.816;6.054;2023-07-31T10:05:46;19.50;78.80
41628;DHT22;27321;50.816;6.054;2023-07-31T10:08:51;19.60;78.30
41628;DHT22;27321;50.816;6.054;2023-07-31T10:11:59;19.40;78.40
41628;DHT22;27321;50.816;6.054;2023-07-31T10:15:01;19.40;79.00
41628;DHT22;27321;50.816;6.054;2023-07-31T10:18:06;19.30;78.80
41628;DHT22;27321;50.816;6.054;2023-07-31T10:21:07;19.20;79.10
41628;DHT22;27321;50.816;6.054;2023-07-31T10:24:08;19.10;79.00
41628;DHT22;27321;50.816;6.054;2023-07-31T10:27:10;19.00;79.80
41628;DHT22;27321;50.816;6.054;2023-07-31T10:30:22;19.00;80.10
41628;DHT22;27321;50.816;6.054;2023-07-31T10:33:28;19.10;80.00
41628;DHT22;27321;50.816;6.054;2023-07-31T10:36:30;19.00;79.50
41628;DHT22;27321;50.816;6.054;2023-07-31T10:39:35;19.10;80.10
41628;DHT22;27321;50.816;6.054;2023-07-31T10:42:57;19.10;80.00
41628;DHT22;27321;50.816;6.054;2023-07-31T10:45:58;19.10;79.80
41628;DHT22;27321;50.816;6.054;2023-07-31T10:49:01;19.20;79.60
41628;DHT22;27321;50.816;6.054;2023-07-31T10:52:03;19.30;79.60
41628;DHT22;27321;50.816;6.054;2023-07-31T10:58:19;19.60;79.40
41628;DHT22;27321;50.816;6.054;2023-07-31T11:01:21;19.70;78.60
41628;DHT22;27321;50.816;6.054;2023-07-31T11:04:27;19.80;78.60
41628;DHT22;27321;50.816;6.054;2023-07-31T11:07:46;19.80;78.50
41628;DHT22;27321;50.816;6.054;2023-07-31T11:10:50;19.90;77.80
41628;DHT22;27321;50.816;6.054;2023-07-31T11:14:10;19.90;77.60
41628;DHT22;27321;50.816;6.054;2023-07-31T11:17:12;19.90;77.50
41628;DHT22;27321;50.816;6.054;2023-07-31T11:20:13;19.80;77.40
41628;DHT22;27321;50.816;6.054;2023-07-31T11:23:17;19.90;77.10
41628;DHT22;27321;50.816;6.054;2023-07-31T11:26:18;19.90;76.50
41628;DHT22;27321;50.816;6.054;2023-07-31T11:29:20;19.90;76.70
41628;DHT22;27321;50.816;6.054;2023-07-31T11:32:23;19.90;76.00
41628;DHT22;27321;50.816;6.054;2023-07-31T11:35:24;19.80;76.50
41628;DHT22;27321;50.816;6.054;2023-07-31T11:38:33;19.80;76.80
41628;DHT22;27321;50.816;6.054;2023-07-31T11:41:35;19.80;76.80
41628;DHT22;27321;50.816;6.054;2023-07-31T11:44:40;19.70;77.00
41628;DHT22;27321;50.816;6.054;2023-07-31T11:47:41;19.80;77.00
41628;DHT22;27321;50.816;6.054;2023-07-31T11:50:42;19.80;77.00
41628;DHT22;27321;50.816;6.054;2023-07-31T11:53:53;19.80;77.00
41628;DHT22;27321;50.816;6.054;2023-07-31T11:56:57;19.90;76.40
41628;DHT22;27321;50.816;6.054;2023-07-31T11:59:59;19.80;76.70
41628;DHT22;27321;50.816;6.054;2023-07-31T12:03:00;19.70;77.00
41628;DHT22;27321;50.816;6.054;2023-07-31T12:06:01;19.80;76.90
41628;DHT22;27321;50.816;6.054;2023-07-31T12:09:04;19.80;76.30
41628;DHT22;27321;50.816;6.054;2023-07-31T12:12:09;19.80;76.20
41628;DHT22;27321;50.816;6.054;2023-07-31T12:15:15;19.80;76.50
41628;DHT22;27321;50.816;6.054;2023-07-31T12:18:20;19.90;76.70
41628;DHT22;27321;50.816;6.054;2023-07-31T12:21:27;19.90;76.40
41628;DHT22;27321;50.816;6.054;2023-07-31T12:24:31;20.00;76.60
41628;DHT22;27321;50.816;6.054;2023-07-31T12:27:34;20.10;76.00
41628;DHT22;27321;50.816;6.054;2023-07-31T12:30:35;20.10;75.50
41628;DHT22;27321;50.816;6.054;2023-07-31T12:33:38;20.10;75.00
41628;DHT22;27321;50.816;6.054;2023-07-31T12:36:40;20.10;75.40
41628;DHT22;27321;50.816;6.054;2023-07-31T12:39:43;20.10;75.10
41628;DHT22;27321;50.816;6.054;2023-07-31T12:42:44;20.00;75.50
41628;DHT22;27321;50.816;6.054;2023-07-31T12:45:45;20.00;75.40
41628;DHT22;27321;50.816;6.054;2023-07-31T12:48:48;20.10;75.30
41628;DHT22;27321;50.816;6.054;2023-07-31T12:51:48;20.10;75.60
41628;DHT22;27321;50.816;6.054;2023-07-31T12:54:49;20.20;75.60
41628;DHT22;27321;50.816;6.054;2023-07-31T12:57:51;20.50;74.80
41628;DHT22;27321;50.816;6.054;2023-07-31T13:00:52;20.70;75.00
41628;DHT22;27321;50.816;6.054;2023-07-31T13:03:53;20.90;73.30
41628;DHT22;27321;50.816;6.054;2023-07-31T13:06:54;21.00;73.10
41628;DHT22;27321;50.816;6.054;2023-07-31T13:09:55;21.00;72.50
41628;DHT22;27321;50.816;6.054;2023-07-31T13:12:56;21.10;72.00
41628;DHT22;27321;50.816;6.054;2023-07-31T13:15:57;21.20;72.30
41628;DHT22;27321;50.816;6.054;2023-07-31T13:18:58;21.30;72.00
41628;DHT22;27321;50.816;6.054;2023-07-31T13:21:59;21.60;71.40
41628;DHT22;27321;50.816;6.054;2023-07-31T13:25:00;21.50;71.10
41628;DHT22;27321;50.816;6.054;2023-07-31T13:28:01;21.50;71.60
41628;DHT22;27321;50.816;6.054;2023-07-31T13:31:02;21.50;71.80
41628;DHT22;27321;50.816;6.054;2023-07-31T13:34:03;21.20;71.40
41628;DHT22;27321;50.816;6.054;2023-07-31T13:37:04;21.10;71.00
41628;DHT22;27321;50.816;6.054;2023-07-31T13:40:09;21.10;71.50
41628;DHT22;27321;50.816;6.054;2023-07-31T13:43:10;21.10;71.70
41628;DHT22;27321;50.816;6.054;2023-07-31T13:46:11;21.20;71.70
41628;DHT22;27321;50.816;6.054;2023-07-31T13:49:12;21.20;71.60
41628;DHT22;27321;50.816;6.054;2023-07-31T13:52:13;21.20;71.10
41628;DHT22;27321;50.816;6.054;2023-07-31T13:55:15;21.20;70.70
41628;DHT22;27321;50.816;6.054;2023-07-31T13:58:17;21.20;70.10
41628;DHT22;27321;50.816;6.054;2023-07-31T14:01:18;21.10;70.40
41628;DHT22;27321;50.816;6.054;2023-07-31T14:04:19;21.10;70.60
41628;DHT22;27321;50.816;6.054;2023-07-31T14:07:20;21.00;71.10
41628;DHT22;27321;50.816;6.054;2023-07-31T14:10:21;21.00;71.50
41628;DHT22;27321;50.816;6.054;2023-07-31T14:13:22;21.10;70.90
41628;DHT22;27321;50.816;6.054;2023-07-31T14:16:23;21.00;71.00
41628;DHT22;27321;50.816;6.054;2023-07-31T14:19:24;21.00;70.90
41628;DHT22;27321;50.816;6.054;2023-07-31T14:22:29;21.00;70.70
41628;DHT22;27321;50.816;6.054;2023-07-31T14:25:30;20.90;70.70
41628;DHT22;27321;50.816;6.054;2023-07-31T14:28:32;20.80;70.60
41628;DHT22;27321;50.816;6.054;2023-07-31T14:31:33;20.80;71.50
41628;DHT22;27321;50.816;6.054;2023-07-31T14:34:34;20.80;71.00
41628;DHT22;27321;50.816;6.054;2023-07-31T14:37:39;20.90;71.10
41628;DHT22;27321;50.816;6.054;2023-07-31T14:40:41;20.90;71.20
41628;DHT22;27321;50.816;6.054;2023-07-31T14:43:43;20.90;70.70
41628;DHT22;27321;50.816;6.054;2023-07-31T14:46:44;20.80;70.90
41628;DHT22;27321;50.816;6.054;2023-07-31T14:49:45;20.70;71.20
41628;DHT22;27321;50.816;6.054;2023-07-31T14:52:45;20.60;71.90
41628;DHT22;27321;50.816;6.054;2023-07-31T14:55:46;20.60;72.00
41628;DHT22;27321;50.816;6.054;2023-07-31T14:58:47;20.50;71.30
41628;DHT22;27321;50.816;6.054;2023-07-31T15:01:48;20.50;72.30
41628;DHT22;27321;50.816;6.054;2023-07-31T15:04:49;20.40;73.30
41628;DHT22;27321;50.816;6.054;2023-07-31T15:07:50;20.30;74.00
41628;DHT22;27321;50.816;6.054;2023-07-31T15:10:51;20.30;74.60
41628;DHT22;27321;50.816;6.054;2023-07-31T15:13:57;20.10;75.40
41628;DHT22;27321;50.816;6.054;2023-07-31T15:16:58;20.00;75.80
41628;DHT22;27321;50.816;6.054;2023-07-31T15:20:00;20.00;76.40
41628;DHT22;27321;50.816;6.054;2023-07-31T15:23:01;19.90;76.60
41628;DHT22;27321;50.816;6.054;2023-07-31T15:26:02;19.90;77.10
41628;DHT22;27321;50.816;6.054;2023-07-31T15:29:06;19.90;77.00
41628;DHT22;27321;50.816;6.054;2023-07-31T15:32:12;19.80;77.50
41628;DHT22;27321;50.816;6.054;2023-07-31T15:35:13;19.80;77.30
41628;DHT22;27321;50.816;6.054;2023-07-31T15:38:14;19.70;77.80
41628;DHT22;27321;50.816;6.054;2023-07-31T15:41:15;19.60;78.30
41628;DHT22;27321;50.816;6.054;2023-07-31T15:44:16;19.60;78.50
41628;DHT22;27321;50.816;6.054;2023-07-31T15:47:16;19.60;78.90
41628;DHT22;27321;50.816;6.054;2023-07-31T15:50:17;19.50;79.40
41628;DHT22;27321;50.816;6.054;2023-07-31T15:53:18;19.50;79.70
41628;DHT22;27321;50.816;6.054;2023-07-31T15:56:19;19.50;79.50
41628;DHT22;27321;50.816;6.054;2023-07-31T15:59:20;19.50;79.70
41628;DHT22;27321;50.816;6.054;2023-07-31T16:02:21;19.50;80.00
41628;DHT22;27321;50.816;6.054;2023-07-31T16:05:22;19.50;80.20
41628;DHT22;27321;50.816;6.054;2023-07-31T16:08:23;19.50;79.80
41628;DHT22;27321;50.816;6.054;2023-07-31T16:11:24;19.50;79.90
41628;DHT22;27321;50.816;6.054;2023-07-31T16:14:25;19.50;79.90
41628;DHT22;27321;50.816;6.054;2023-07-31T16:17:26;19.50;79.90
41628;DHT22;27321;50.816;6.054;2023-07-31T16:20:27;19.50;80.10
41628;DHT22;27321;50.816;6.054;2023-07-31T16:23:28;19.50;79.90
41628;DHT22;27321;50.816;6.054;2023-07-31T16:26:30;19.50;79.80
41628;DHT22;27321;50.816;6.054;2023-07-31T16:29:31;19.50;79.80
41628;DHT22;27321;50.816;6.054;2023-07-31T16:32:32;19.50;79.90
41628;DHT22;27321;50.816;6.054;2023-07-31T16:35:33;19.50;79.80
41628;DHT22;27321;50.816;6.054;2023-07-31T16:38:34;19.40;79.90
41628;DHT22;27321;50.816;6.054;2023-07-31T16:41:34;19.30;80.30
41628;DHT22;27321;50.816;6.054;2023-07-31T16:44:35;19.20;80.80
41628;DHT22;27321;50.816;6.054;2023-07-31T16:47:36;19.30;81.00
41628;DHT22;27321;50.816;6.054;2023-07-31T16:50:37;19.30;81.10
41628;DHT22;27321;50.816;6.054;2023-07-31T16:53:38;19.30;81.10
41628;DHT22;27321;50.816;6.054;2023-07-31T16:56:40;19.30;80.60
41628;DHT22;27321;50.816;6.054;2023-07-31T16:59:41;19.30;80.80
41628;DHT22;27321;50.816;6.054;2023-07-31T17:02:42;19.20;80.90
41628;DHT22;27321;50.816;6.054;2023-07-31T17:05:43;19.20;81.20
41628;DHT22;27321;50.816;6.054;2023-07-31T17:08:44;19.20;81.30
41628;DHT22;27321;50.816;6.054;2023-07-31T17:11:45;19.20;81.10
41628;DHT22;27321;50.816;6.054;2023-07-31T17:14:46;19.20;81.20
41628;DHT22;27321;50.816;6.054;2023-07-31T17:17:51;19.10;81.30
41628;DHT22;27321;50.816;6.054;2023-07-31T17:20:54;19.10;81.50
41628;DHT22;27321;50.816;6.054;2023-07-31T17:23:58;19.10;81.70
41628;DHT22;27321;50.816;6.054;2023-07-31T17:26:59;19.10;81.60
41628;DHT22;27321;50.816;6.054;2023-07-31T17:30:00;19.00;81.70
41628;DHT22;27321;50.816;6.054;2023-07-31T17:33:01;19.00;81.70
41628;DHT22;27321;50.816;6.054;2023-07-31T17:36:02;19.10;81.50
41628;DHT22;27321;50.816;6.054;2023-07-31T17:39:04;19.00;81.70
41628;DHT22;27321;50.816;6.054;2023-07-31T17:42:05;19.00;81.70
41628;DHT22;27321;50.816;6.054;2023-07-31T17:45:07;18.90;81.90
41628;DHT22;27321;50.816;6.054;2023-07-31T17:48:08;18.90;82.30
41628;DHT22;27321;50.816;6.054;2023-07-31T17:51:09;18.80;82.30
41628;DHT22;27321;50.816;6.054;2023-07-31T17:54:10;18.80;82.60
41628;DHT22;27321;50.816;6.054;2023-07-31T17:57:11;18.80;82.70
41628;DHT22;27321;50.816;6.054;2023-07-31T18:00:12;18.70;82.70
41628;DHT22;27321;50.816;6.054;2023-07-31T18:03:13;18.70;82.60
41628;DHT22;27321;50.816;6.054;2023-07-31T18:06:14;18.70;82.70
41628;DHT22;27321;50.816;6.054;2023-07-31T18:09:15;18.70;83.10
41628;DHT22;27321;50.816;6.054;2023-07-31T18:12:16;18.70;82.70
41628;DHT22;27321;50.816;6.054;2023-07-31T18:15:17;18.70;82.70
41628;DHT22;27321;50.816;6.054;2023-07-31T18:18:18;18.70;82.90
41628;DHT22;27321;50.816;6.054;2023-07-31T18:21:19;18.70;82.80
41628;DHT22;27321;50.816;6.054;2023-07-31T18:24:20;18.70;82.50
41628;DHT22;27321;50.816;6.054;2023-07-31T18:27:21;18.60;82.70
41628;DHT22;27321;50.816;6.054;2023-07-31T18:30:23;18.60;83.10
41628;DHT22;27321;50.816;6.054;2023-07-31T18:33:24;18.60;83.20
41628;DHT22;27321;50.816;6.054;2023-07-31T18:36:25;18.60;83.40
41628;DHT22;27321;50.816;6.054;2023-07-31T18:39:26;18.50;83.40
41628;DHT22;27321;50.816;6.054;2023-07-31T18:42:27;18.50;83.50
41628;DHT22;27321;50.816;6.054;2023-07-31T18:45:27;18.50;84.00
41628;DHT22;27321;50.816;6.054;2023-07-31T18:48:28;18.40;84.10
41628;DHT22;27321;50.816;6.054;2023-07-31T18:51:31;18.40;84.20
41628;DHT22;27321;50.816;6.054;2023-07-31T18:54:36;18.40;84.00
41628;DHT22;27321;50.816;6.054;2023-07-31T18:57:37;18.40;84.20
41628;DHT22;27321;50.816;6.054;2023-07-31T19:00:38;18.40;84.30
41628;DHT22;27321;50.816;6.054;2023-07-31T19:03:39;18.40;84.40
41628;DHT22;27321;50.816;6.054;2023-07-31T19:06:40;18.40;84.40
41628;DHT22;27321;50.816;6.054;2023-07-31T19:09:42;18.40;84.20
41628;DHT22;27321;50.816;6.054;2023-07-31T19:12:43;18.40;84.40
41628;DHT22;27321;50.816;6.054;2023-07-31T19:15:45;18.40;84.50
41628;DHT22;27321;50.816;6.054;2023-07-31T19:18:46;18.30;84.50
41628;DHT22;27321;50.816;6.054;2023-07-31T19:21:47;18.30;84.70